Latest Weather Observations for Red Rocks Point

IDW60801

Issued at 4:05 am WST Tuesday 23 September 2014 (issued every 30 minutes, with the page automatically refreshed every 10 minutes)

About weather observations | Map of weather stations | Latest weather observations for WA | Other Formats
Station Details ID: 011053 Name: RED ROCKS POINT Lat: -32.20 Lon: 127.53 Height: 3.1 m
Data from the previous 72 hours. | See also: Recent months for locations in Western Australia
Date/Time
WST
Temp
°C
App
Temp
°C
Dew
Point
Rel
Hum
%
Delta-T
°C
Wind Press
QNH
hPa
Press
MSL
hPa
Rain
since 9 am
mm
Dir
 
Spd
km/h
Gust
km/h
Spd
kts
Gust
kts
23/04:00am 15.1 10.8 12.2 83 1.6 E 26 28 14 15 1011.1 - 7.8
23/03:30am 14.9 10.7 12.4 85 1.4 E 26 30 14 16 1011.2 - 7.8
23/03:00am 14.6 11.5 12.1 85 1.4 ESE 20 24 11 13 1010.8 1010.8 7.8
23/02:30am 14.6 12.3 11.7 83 1.6 SE 15 19 8 10 1011.6 - 7.4
23/02:00am 14.6 13.1 11.9 84 1.5 SE 11 15 6 8 1011.4 - 7.2
23/01:30am 14.8 11.9 12.8 88 1.1 ESE 20 22 11 12 1011.8 - 6.8
23/01:00am 15.0 12.2 13.2 89 1.0 ESE 20 24 11 13 1011.9 - 6.2
23/12:30am 14.7 15.2 13.9 95 0.4 NNE 4 11 2 6 1012.5 - 5.4
23/12:00am 14.3 15.0 13.5 95 0.4 WSW 2 7 1 4 1012.9 1012.9 5.0
 
Date/Time
WST
Temp
°C
App
Temp
°C
Dew
Point
Rel
Hum
%
Delta-T
°C
Wind Press
QNH
hPa
Press
MSL
hPa
Rain
since 9 am
mm
Dir
 
Spd
km/h
Gust
km/h
Spd
kts
Gust
kts
22/11:30pm 14.2 13.6 13.4 95 0.4 W 9 17 5 9 1013.3 - 4.2
22/11:00pm 14.4 13.8 13.6 95 0.4 WNW 9 13 5 7 1013.4 - 2.6
22/10:30pm 14.6 14.4 13.6 94 0.6 WSW 7 13 4 7 1013.3 - 2.0
22/10:00pm 14.7 14.5 13.7 94 0.6 WNW 7 9 4 5 1013.6 - 1.6
22/09:30pm 14.6 15.7 13.6 94 0.6 CALM 0 0 0 0 1013.7 - 1.4
22/09:00pm 14.6 14.3 13.3 92 0.7 WNW 7 11 4 6 1013.2 1013.2 1.2
22/08:30pm 14.9 14.6 13.3 90 0.9 W 7 11 4 6 1013.2 - 1.0
22/08:00pm 15.4 15.6 12.9 85 1.4 NE 4 11 2 6 1013.4 - 0.4
22/07:30pm 15.9 14.6 12.5 80 1.9 NNW 11 20 6 11 1013.4 - 0.2
22/07:00pm 16.0 14.5 12.0 77 2.2 NW 11 17 6 9 1012.6 - 0.2
22/06:30pm 16.1 13.5 11.9 76 2.3 W 17 20 9 11 1011.5 - 0.2
22/06:00pm 16.0 14.3 12.6 80 1.9 WNW 13 19 7 10 1011.8 1011.8 0.2
22/05:30pm 16.0 15.2 12.9 82 1.7 WNW 9 13 5 7 1012.0 - 0.2
22/05:00pm 16.8 15.4 12.3 75 2.5 WNW 11 17 6 9 1011.6 - 0.0
22/04:30pm 18.8 15.3 12.1 65 3.7 WSW 22 32 12 17 1010.2 - 0.0
22/04:00pm 18.4 16.3 13.7 74 2.7 WSW 17 22 9 12 1010.4 - 0.0
22/03:30pm 18.4 15.9 14.1 76 2.5 WSW 20 32 11 17 1010.3 - 0.0
22/03:00pm 18.1 15.3 14.4 79 2.1 WSW 22 35 12 19 1010.0 1010.0 0.0
22/02:30pm 18.4 16.2 14.3 77 2.4 SW 19 24 10 13 1009.4 - 0.0
22/02:00pm 18.6 16.9 14.7 78 2.3 WSW 17 22 9 12 1009.8 - 0.0
22/01:30pm 18.5 16.1 14.4 77 2.4 WSW 20 28 11 15 1009.8 - 0.0
22/01:00pm 19.4 17.7 14.6 74 2.8 WSW 17 26 9 14 1009.7 - 0.0
22/12:30pm 19.9 16.7 14.3 70 3.2 WSW 24 35 13 19 1009.5 - 0.0
22/12:00pm 20.2 16.7 14.6 70 3.3 WSW 26 39 14 21 1009.3 1009.3 0.0
22/11:30am 19.4 16.3 14.6 74 2.8 WSW 24 35 13 19 1009.3 - 0.0
22/11:00am 19.7 16.7 14.7 73 2.9 WSW 24 32 13 17 1009.3 - 0.0
22/10:30am 20.7 17.7 14.8 69 3.5 WSW 24 37 13 20 1009.1 - 0.0
22/10:03am 21.0 16.3 14.2 65 4.0 WSW 32 50 17 27 1008.9 - 0.0
22/10:00am 20.9 15.9 13.4 62 4.3 WSW 32 44 17 24 1009.0 - 0.0
22/09:56am 22.3 17.7 12.3 53 5.7 W 28 44 15 24 1009.0 - 0.0
22/09:30am 28.3 20.5 -3.8 12 14.1 N 28 52 15 28 1008.4 - 0.0
22/09:00am 27.7 19.1 -4.3 12 13.9 N 32 59 17 32 1008.7 1008.7 0.0
22/08:31am 26.8 18.1 -4.9 12 13.5 N 32 50 17 27 1008.6 - 0.0
22/08:30am 26.8 18.5 -4.9 12 13.5 N 30 44 16 24 1008.6 - 0.0
22/08:00am 25.6 15.9 -5.9 12 13.0 N 37 56 20 30 1008.5 - 0.0
22/07:30am 24.7 16.7 -5.5 13 12.5 N 28 48 15 26 1009.1 - 0.0
22/07:29am 24.6 16.6 -5.6 13 12.5 N 28 48 15 26 1009.1 - 0.0
22/07:00am 23.0 16.1 -5.9 14 11.7 NW 22 44 12 24 1009.9 - 0.0
22/06:40am 23.2 15.2 -5.7 14 11.7 N 28 46 15 25 1008.4 - 0.0
22/06:30am 22.6 13.8 -6.2 14 11.5 N 32 43 17 23 1008.0 - 0.0
22/06:21am 22.4 14.3 -6.4 14 11.5 NW 28 46 15 25 1009.2 - 0.0
22/05:30am 22.0 12.6 -6.7 14 11.3 N 35 56 19 30 1007.1 - 0.0
22/05:00am 22.0 12.6 -6.7 14 11.3 N 35 56 19 30 1007.1 - 0.0
22/04:30am 22.4 13.4 -6.4 14 11.5 N 33 52 18 28 1006.8 - 0.0
22/04:00am 22.7 13.4 -5.2 15 11.4 N 35 54 19 29 1006.9 - 0.0
22/03:30am 22.9 14.2 -5.1 15 11.5 N 32 56 17 30 1007.4 - 0.0
22/03:00am 23.2 13.6 -4.8 15 11.6 NNE 37 56 20 30 1007.1 1007.1 0.0
22/02:30am 23.2 13.7 -4.0 16 11.4 NNE 37 63 20 34 1007.2 - 0.0
22/02:00am 23.7 14.6 -3.6 16 11.6 NNE 35 54 19 29 1007.5 - 0.0
22/01:30am 23.8 14.7 -3.5 16 11.6 NNE 35 54 19 29 1008.0 - 0.0
22/01:00am 24.4 14.6 -3.0 16 11.9 NNE 39 63 21 34 1008.3 - 0.0
22/12:31am 24.4 15.7 -3.0 16 11.9 NNE 33 52 18 28 1008.9 - 0.0
22/12:30am 24.3 15.3 -3.1 16 11.8 NNE 35 52 19 28 1009.0 - 0.0
22/12:11am 24.3 16.3 -2.3 17 11.6 NNE 30 48 16 26 1009.4 - 0.0
22/12:00am 24.5 15.9 -2.9 16 11.9 NNE 33 48 18 26 1009.6 1009.6 0.0
 
Date/Time
WST
Temp
°C
App
Temp
°C
Dew
Point
Rel
Hum
%
Delta-T
°C
Wind Press
QNH
hPa
Press
MSL
hPa
Rain
since 9 am
mm
Dir
 
Spd
km/h
Gust
km/h
Spd
kts
Gust
kts
21/11:30pm 24.8 15.5 -1.9 17 11.8 NNE 37 57 20 31 1010.1 - 0.0
21/10:30pm 25.3 17.0 -1.5 17 12.0 NNE 32 52 17 28 1011.1 - 0.0
21/10:00pm 25.7 17.2 -2.0 16 12.3 NNE 33 59 18 32 1011.5 - 0.0
21/09:30pm 25.9 17.7 -1.0 17 12.2 NNE 32 44 17 24 1012.0 - 0.0
21/09:00pm 26.2 18.3 -1.6 16 12.5 NNE 30 46 16 25 1012.3 1012.3 0.0
21/08:43pm 26.5 18.3 -1.3 16 12.6 NNE 32 50 17 27 1012.4 - 0.0
21/08:30pm 26.7 18.8 -1.2 16 12.7 NNE 30 46 16 25 1012.5 - 0.0
21/08:22pm 26.6 19.1 -1.3 16 12.7 NNE 28 46 15 25 1012.5 - 0.0
21/08:00pm 26.9 19.5 -1.0 16 12.8 NNE 28 39 15 21 1012.6 - 0.0
21/07:30pm 27.0 20.1 -0.1 17 12.6 NNE 26 39 14 21 1012.4 - 0.0
21/07:00pm 27.7 21.7 1.2 18 12.7 NNE 22 32 12 17 1012.4 - 0.0
21/06:30pm 28.1 22.4 0.8 17 13.0 NNE 20 30 11 16 1012.1 - 0.0
21/05:30pm 30.0 23.5 0.6 15 14.2 NNE 24 37 13 20 1011.4 - 0.0
21/05:00pm 31.3 23.9 -0.4 13 15.2 NNE 28 43 15 23 1011.2 - 0.0
21/04:30pm 32.2 25.2 -0.8 12 15.8 N 26 39 14 21 1011.3 - 0.0
21/04:00pm 32.9 25.4 -1.4 11 16.3 NNE 28 46 15 25 1011.4 - 0.0
21/03:58pm 32.9 25.4 -1.4 11 16.3 NNE 28 46 15 25 1011.4 - 0.0
21/03:30pm 33.3 26.2 -1.1 11 16.5 NNE 26 44 14 24 1011.6 - 0.0
21/03:00pm 33.5 25.5 -2.3 10 16.9 NNE 30 48 16 26 1011.8 1011.8 0.0
21/02:36pm 33.7 26.3 -0.8 11 16.7 N 28 46 15 25 1012.1 - 0.0
21/02:30pm 33.8 26.2 -2.0 10 17.0 NNE 28 43 15 23 1012.1 - 0.0
21/02:00pm 33.4 25.6 -1.0 11 16.5 NNE 30 46 16 25 1012.6 - 0.0
21/01:30pm 32.9 24.5 -1.4 11 16.3 NNE 33 46 18 25 1013.0 - 0.0
21/01:00pm 32.5 24.0 -3.0 10 16.4 N 32 46 17 25 1013.7 - 0.0
21/12:30pm 31.9 23.9 -2.2 11 15.9 NNE 30 50 16 27 1014.2 - 0.0
21/12:11pm 31.8 23.5 0.0 13 15.4 NNE 33 52 18 28 1014.8 - 0.0
21/12:00pm 31.7 24.0 -0.1 13 15.3 NNE 30 43 16 23 1015.1 1015.1 0.0
21/11:35am 30.5 22.8 0.0 14 14.6 N 30 50 16 27 1015.7 - 0.0
21/11:30am 31.2 23.7 1.5 15 14.7 N 30 43 16 23 1015.7 - 0.0
21/11:00am 29.4 21.5 1.0 16 13.7 N 32 50 17 27 1016.7 - 0.0
21/10:49am 29.3 22.0 2.5 18 13.3 N 30 48 16 26 1017.0 - 0.0
21/10:30am 28.7 21.7 4.2 21 12.5 NNE 30 43 16 23 1017.5 - 0.0
21/10:04am 27.2 20.7 4.9 24 11.4 NNE 28 46 15 25 1018.1 - 0.0
21/10:00am 27.4 21.1 5.6 25 11.3 NE 28 35 15 19 1018.2 - 0.0
21/09:30am 25.8 19.5 5.9 28 10.3 NNE 28 39 15 21 1018.9 - 0.0
21/09:00am 23.3 18.5 7.4 36 8.3 NE 22 32 12 17 1019.5 1019.5 0.0
21/08:30am 20.7 15.8 8.4 45 6.4 NNE 24 35 13 19 1020.0 - 0.0
21/08:00am 18.1 14.2 9.5 57 4.5 NNE 20 32 11 17 1020.5 - 0.0
21/07:30am 15.3 11.3 9.0 66 3.2 NNE 20 30 11 16 1020.8 - 0.0
21/07:00am 13.2 10.3 9.6 79 1.8 NNE 15 24 8 13 1021.0 - 0.0
21/06:30am 11.5 9.1 10.1 91 0.7 NE 13 19 7 10 1021.2 - 0.0
21/06:00am 9.8 7.9 8.9 94 0.4 NNE 9 11 5 6 1021.3 1021.3 0.0
21/05:30am 9.3 6.8 8.2 93 0.5 NE 11 13 6 7 1021.3 - 0.0
21/05:00am 9.7 6.9 8.6 93 0.5 NE 13 17 7 9 1021.2 - 0.0
21/04:30am 10.2 7.5 9.0 92 0.6 NE 13 19 7 10 1021.2 - 0.0
21/04:00am 10.8 8.0 9.9 94 0.5 NE 15 20 8 11 1021.1 - 0.0
21/03:30am 11.6 8.7 11.0 96 0.3 NNE 17 22 9 12 1021.1 - 0.0
21/03:00am 11.8 8.5 11.0 95 0.4 NNE 19 26 10 14 1021.2 1021.2 0.0
21/02:30am 12.1 8.9 11.2 94 0.5 NE 19 24 10 13 1021.1 - 0.0
21/02:00am 12.4 9.0 11.3 93 0.6 NE 20 28 11 15 1021.4 - 0.0
21/01:30am 12.6 9.3 11.5 93 0.6 NE 20 26 11 14 1021.7 - 0.0
21/01:00am 13.1 9.9 11.8 92 0.7 NE 20 26 11 14 1021.8 - 0.0
21/12:30am 13.6 10.1 12.2 91 0.8 NE 22 30 12 16 1022.0 - 0.0
21/12:00am 13.7 10.2 12.3 91 0.8 NE 22 28 12 15 1022.2 1022.2 0.0
 
Date/Time
WST
Temp
°C
App
Temp
°C
Dew
Point
Rel
Hum
%
Delta-T
°C
Wind Press
QNH
hPa
Press
MSL
hPa
Rain
since 9 am
mm
Dir
 
Spd
km/h
Gust
km/h
Spd
kts
Gust
kts
20/11:30pm 14.2 11.1 12.1 87 1.1 NE 20 28 11 15 1022.4 - 0.0
20/11:00pm 15.8 10.3 13.5 86 1.3 E 35 39 19 21 1022.6 - 0.0
20/10:30pm 15.9 10.1 12.8 82 1.7 E 35 43 19 23 1022.6 - 0.0
20/10:00pm 15.9 10.1 12.6 81 1.8 E 35 41 19 22 1022.9 - 0.0
20/09:30pm 15.9 10.7 13.4 85 1.4 E 33 39 18 21 1023.0 - 0.0
20/09:00pm 15.8 10.8 13.3 85 1.4 E 32 37 17 20 1023.3 1023.3 0.0
20/08:30pm 15.9 11.0 13.6 86 1.3 E 32 35 17 19 1023.3 - 0.0
20/08:00pm 16.0 11.2 12.9 82 1.7 E 30 35 16 19 1023.4 - 0.0
20/07:30pm 15.9 11.2 13.2 84 1.5 E 30 33 16 18 1023.3 - 0.0
20/07:00pm 15.9 10.8 13.2 84 1.5 E 32 35 17 19 1023.2 - 0.0
20/06:30pm 16.0 11.0 13.5 85 1.4 E 32 35 17 19 1022.9 - 0.0
20/06:00pm 16.0 11.4 13.5 85 1.4 E 30 33 16 18 1022.8 1022.8 0.0
20/05:30pm 16.0 11.8 13.5 85 1.4 E 28 32 15 17 1022.7 - 0.0
20/05:00pm 16.3 12.1 13.4 83 1.6 E 28 32 15 17 1022.5 - 0.0
20/04:30pm 16.4 12.4 13.1 81 1.8 E 26 32 14 17 1022.5 - 0.0
20/04:00pm 16.8 12.8 12.9 78 2.2 ESE 26 30 14 16 1022.4 - 0.0
20/03:30pm 17.2 13.6 13.1 77 2.3 ESE 24 28 13 15 1022.4 - 0.0
20/03:00pm 17.5 13.9 13.0 75 2.5 ESE 24 28 13 15 1022.4 1022.4 0.0
20/02:30pm 17.8 14.2 12.9 73 2.7 ESE 24 28 13 15 1022.4 - 0.0
20/02:00pm 18.2 14.7 13.5 74 2.7 ESE 24 28 13 15 1022.6 - 0.0
20/01:30pm 18.5 15.3 13.1 71 3.0 ESE 22 26 12 14 1022.9 - 0.0
20/01:00pm 18.8 15.7 13.4 71 3.1 ESE 22 24 12 13 1022.9 - 0.0
20/12:30pm 18.6 15.7 13.0 70 3.2 ESE 20 22 11 12 1023.2 - 0.0
20/12:00pm 18.5 15.6 12.9 70 3.1 E 20 24 11 13 1023.2 1023.2 0.0
20/11:30am 19.0 16.1 13.0 68 3.4 ESE 20 24 11 13 1023.6 - 0.0
20/11:00am 18.6 15.7 13.0 70 3.2 E 20 24 11 13 1023.9 - 0.0
20/10:30am 18.2 15.4 13.1 72 2.9 E 20 22 11 12 1024.2 - 0.0
20/10:00am 18.3 15.7 13.2 72 2.9 ESE 19 22 10 12 1024.4 - 0.0
20/09:30am 18.1 15.4 13.4 74 2.7 E 20 22 11 12 1024.6 - 0.0
20/09:00am 18.3 15.6 13.6 74 2.7 ESE 20 22 11 12 1024.6 1024.6 0.0
20/08:30am 17.6 15.0 13.1 75 2.5 ESE 19 20 10 11 1024.7 - 0.0
20/08:00am 17.2 14.5 12.9 76 2.4 ESE 19 20 10 11 1024.5 - 0.0
20/07:30am 17.0 14.8 13.3 79 2.1 ESE 17 20 9 11 1024.4 - 0.0
20/07:00am 16.0 13.6 12.7 81 1.8 ESE 17 20 9 11 1024.3 - 0.0
20/06:30am 16.0 14.2 13.3 84 1.5 SE 15 19 8 10 1024.2 - 0.0
20/06:00am 15.7 13.9 13.4 86 1.3 SE 15 17 8 9 1023.9 1023.9 0.0
20/05:30am 15.3 13.0 13.0 86 1.3 SE 17 20 9 11 1023.7 - 0.0
20/05:00am 15.3 12.7 13.1 87 1.2 SE 19 20 10 11 1023.5 - 0.0
20/04:30am 15.3 12.4 13.0 86 1.3 SE 20 24 11 13 1023.1 - 0.0

Other Formats:

Comma delimited format used in spreadsheet applications
http://www.bom.gov.au/fwo/IDW60801/IDW60801.94644.axf

JavaScript Object Notation format (JSON) in row-major order
http://www.bom.gov.au/fwo/IDW60801/IDW60801.94644.json